Hanalei, HI (96714)

3:41 PM HST on February 06, 2016 (GMT -1000)
North Shore of Kauai | | Change Station
CLOSE
Current Station
Personal Weather Station
Location: Princeville, HI
Elevation: 200 ft
Nearby Weather Stations
Active Advisory: Wind Advisory Active Notice: Record Report

Elev 200 ft 22.23 °N, 159.48 °W | Updated 9 seconds ago

Clear
Clear
82.6 °F
Feels Like 87 °F
N
3.4
Wind Variable Wind from WNW
Gusts 3.6 mph

Today
High -- | Low -- °F
--% Chance of Precip.
Yesterday
High -- | Low -- °F
Precip. -- in
Pressure 29.92 in
Visibility 10.0 miles
Clouds Clear
Heat Index 87 °F
Dew Point 70 °F
Humidity 67%
Rainfall 0.00 in
Snow Depth Not available.
7:14 AM 6:29 PM
Waning Crescent, 3% visible
METAR PHLI 062353Z 06011KT 10SM CLR 27/19 A2993 RMK AO2 SLP131 T02670189 10272 20194 58029
Pressure 29.92 in
Visibility 10.0 miles
Clouds Clear
Heat Index 87 °F
Dew Point 70 °F
Humidity 67%
Rainfall 0.00 in
Snow Depth Not available.
7:14 AM 6:29 PM
Waning Crescent, 3% visible
METAR PHLI 062353Z 06011KT 10SM CLR 27/19 A2993 RMK AO2 SLP131 T02670189 10272 20194 58029

10-Day Weather Forecast

Almanac

Astronomy

Feb. 06, 2016 Rise Set
Actual Time
Civil Twilight
Nautical Twilight
Astronomical Twilight
Moon
Length of Visible Light
Length of Day
Tomorrow will be .
, % of the Moon is Illuminated

Today's Extremes

State Highs State Lows

Community

WunderPhotos

Upload Photos

1,891,123 photos uploaded!

WunderBlog® & News

Nearby

Air Quality

  Air Quality AQ Index Pollutant
Not available.

Snow Depth

Station Depth Elevation

Earthquake Activity

City Distance Mag. Time & Date
Minimum magnitude displayed is 2.5.

Coastal Water Temperatures

Place Temperature

Stations

Nearby Weather Stations

Station Location Temp. Windchill Dew Point Humidity Wind Precip. Elev Updated Type
                   

Watches & Warnings

Wind Advisory
Issued: 9:28 AM HST Feb. 6, 2016 – National Weather Service

... Wind Advisory now in effect from 2 PM this afternoon to noon
HST Sunday...

* timing... late this afternoon through Sunday morning.

* Winds... along and behind a front... north winds up to 30 mph with
localized gusts up to 50 mph. Winds will be strongest over and
downwind of terrain.

* Impacts... motorists... especially those in high profile
vehicles... are urged to drive with extreme caution.
Lightweight outdoor objects may be blown around... and should
be secured before winds increase.

Precautionary/preparedness actions...

A Wind Advisory means that sustained winds of at least 30 mph...
or gusts of at least 50 mph... are expected. Motorists should use
extra caution.